Time;durP1;ratioP1;P1;durP2;ratioP2;P2;SDS_P1;SDS_P2;PMS_P1;PMS_P2;Temp;Humidity;BMP_temperature;BMP_pressure;BME280_temperature;BME280_humidity;BME280_pressure;Samples;Min_cycle;Max_cycle;Signal;HPM_P1;HPM_P2
2020/12/26 00:02:06;;;;;;;11.02;6.13;;;3.30;96.50;;;;;;5027203;28;20124;-43
2020/12/26 00:04:31;;;;;;;13.98;6.72;;;3.30;96.40;;;;;;5026850;28;20037;-44
2020/12/26 00:06:57;;;;;;;9.65;5.55;;;3.40;96.40;;;;;;5026841;28;20026;-42
2020/12/26 00:09:22;;;;;;;9.48;5.22;;;3.40;96.30;;;;;;5027143;28;20528;-44
2020/12/26 00:11:49;;;;;;;10.48;5.68;;;3.50;96.30;;;;;;5027651;28;20509;-43
2020/12/26 00:14:15;;;;;;;7.57;4.75;;;3.50;96.30;;;;;;5026591;28;20033;-44
2020/12/26 00:16:40;;;;;;;7.63;4.35;;;3.50;96.20;;;;;;5026971;28;20404;-44
2020/12/26 00:19:06;;;;;;;7.00;4.63;;;3.60;96.30;;;;;;5026902;28;20061;-42
2020/12/26 00:21:31;;;;;;;5.57;4.38;;;3.60;96.20;;;;;;5025503;28;20526;-42
2020/12/26 00:23:57;;;;;;;7.85;5.10;;;3.60;96.20;;;;;;5025268;28;20029;-44
2020/12/26 00:26:22;;;;;;;7.20;5.63;;;3.60;96.20;;;;;;5026760;28;20044;-42
2020/12/26 00:28:48;;;;;;;9.25;5.80;;;3.60;96.20;;;;;;5026533;28;20029;-44
2020/12/26 00:31:15;;;;;;;7.80;5.07;;;3.60;96.10;;;;;;5026780;28;20028;-42
2020/12/26 00:33:41;;;;;;;7.80;5.82;;;3.70;96.20;;;;;;5026644;28;20033;-41
2020/12/26 00:36:06;;;;;;;10.02;5.90;;;3.60;96.10;;;;;;5026644;28;20037;-43
2020/12/26 00:38:33;;;;;;;8.50;5.43;;;3.60;96.10;;;;;;5026822;28;20036;-42
2020/12/26 00:40:58;;;;;;;9.52;6.10;;;3.60;96.10;;;;;;5027119;28;20041;-44
2020/12/26 00:43:24;;;;;;;9.88;6.05;;;3.60;96.10;;;;;;5026260;28;20031;-43
2020/12/26 00:45:49;;;;;;;9.43;6.10;;;3.60;96.10;;;;;;5026816;28;20432;-43
2020/12/26 00:48:15;;;;;;;12.95;7.13;;;3.60;96.10;;;;;;5025964;28;20036;-43
2020/12/26 00:50:40;;;;;;;11.27;6.40;;;3.60;96.10;;;;;;5026171;28;20041;-43
2020/12/26 00:53:06;;;;;;;10.25;5.80;;;3.60;96.10;;;;;;5026876;28;20025;-43
2020/12/26 00:55:31;;;;;;;8.23;5.47;;;3.60;96.10;;;;;;5026661;28;20520;-43
2020/12/26 00:57:57;;;;;;;8.75;5.47;;;3.60;96.10;;;;;;5026378;28;20034;-44
2020/12/26 01:00:23;;;;;;;8.45;5.28;;;3.60;96.10;;;;;;5026560;28;20075;-43
2020/12/26 01:02:48;;;;;;;7.43;5.88;;;3.60;96.10;;;;;;5026802;28;20021;-43
2020/12/26 01:05:14;;;;;;;7.43;5.20;;;3.70;96.10;;;;;;5026651;28;20029;-43
2020/12/26 01:07:39;;;;;;;11.77;5.88;;;3.70;96.10;;;;;;5026983;28;20026;-43
2020/12/26 01:10:05;;;;;;;9.63;6.00;;;3.70;96.10;;;;;;5026899;28;20123;-43
2020/12/26 01:12:31;;;;;;;9.25;5.22;;;3.70;96.10;;;;;;5026866;28;20029;-43
2020/12/26 01:14:57;;;;;;;8.40;6.22;;;3.70;96.10;;;;;;5026799;28;20045;-43
2020/12/26 01:17:23;;;;;;;11.02;5.63;;;3.70;96.10;;;;;;5026517;28;20466;-42
2020/12/26 01:19:48;;;;;;;8.98;5.32;;;3.80;96.10;;;;;;5026538;28;20053;-42
2020/12/26 01:22:14;;;;;;;9.55;5.57;;;3.70;96.10;;;;;;5026674;28;20080;-44
2020/12/26 01:24:43;;;;;;;10.45;5.95;;;3.70;96.10;;;;;;5026535;28;20163;-44
2020/12/26 01:27:09;;;;;;;8.13;6.03;;;3.80;96.10;;;;;;5027268;28;20025;-43
2020/12/26 01:29:35;;;;;;;9.07;6.00;;;3.80;96.10;;;;;;5029254;28;20025;-43
2020/12/26 01:32:00;;;;;;;10.98;6.32;;;3.80;96.10;;;;;;5030293;28;20056;-43
2020/12/26 01:34:26;;;;;;;11.20;6.68;;;3.80;96.10;;;;;;5030523;28;20064;-43
2020/12/26 01:36:55;;;;;;;9.90;6.00;;;3.80;96.00;;;;;;5030796;28;20044;-44
2020/12/26 01:39:22;;;;;;;10.25;5.85;;;3.80;96.00;;;;;;5030383;28;20021;-43
2020/12/26 01:41:49;;;;;;;10.65;6.65;;;3.80;96.00;;;;;;5030282;28;20091;-42
2020/12/26 01:44:16;;;;;;;11.02;7.35;;;3.80;96.00;;;;;;5030227;28;20124;-43
2020/12/26 01:46:42;;;;;;;8.70;6.20;;;3.80;96.00;;;;;;5030140;28;20827;-43
2020/12/26 01:49:07;;;;;;;12.38;6.93;;;3.80;96.30;;;;;;5030903;28;20366;-44
2020/12/26 01:51:33;;;;;;;8.80;6.15;;;3.80;96.00;;;;;;5030360;28;20044;-43
2020/12/26 01:54:01;;;;;;;11.13;6.93;;;3.90;96.00;;;;;;5030120;28;20052;-43
2020/12/26 01:56:26;;;;;;;12.80;7.07;;;3.90;96.00;;;;;;5030287;28;20041;-46
2020/12/26 01:58:52;;;;;;;12.10;7.32;;;3.90;96.00;;;;;;5030065;28;20021;-44
2020/12/26 02:01:29;;;;;;;13.52;8.68;;;3.90;96.00;;;;;;5030213;28;20543;-43
2020/12/26 02:03:55;;;;;;;13.38;8.45;;;3.80;96.00;;;;;;5030357;28;20040;-42
2020/12/26 02:06:20;;;;;;;12.00;8.30;;;3.80;96.00;;;;;;5028920;28;20034;-42
2020/12/26 02:08:46;;;;;;;12.18;7.65;;;3.80;96.00;;;;;;5029809;28;20045;-43
2020/12/26 02:11:11;;;;;;;13.57;7.53;;;3.80;96.10;;;;;;5030071;28;20026;-43
2020/12/26 02:13:37;;;;;;;9.77;7.03;;;3.80;96.20;;;;;;5028788;28;20060;-43
2020/12/26 02:16:07;;;;;;;14.75;7.15;;;3.90;96.20;;;;;;5029520;28;20140;-45
2020/12/26 02:18:33;;;;;;;13.10;8.00;;;3.90;96.20;;;;;;5029013;28;20400;-43
2020/12/26 02:21:00;;;;;;;9.90;6.70;;;3.90;96.30;;;;;;5028834;28;20482;-42
2020/12/26 02:23:26;;;;;;;10.43;6.55;;;4.00;96.30;;;;;;5029114;28;20095;-44
2020/12/26 02:25:54;;;;;;;12.82;6.93;;;4.00;96.30;;;;;;5028939;28;20034;-43
2020/12/26 02:28:20;;;;;;;10.65;7.00;;;4.00;96.30;;;;;;5028710;28;20057;-43
2020/12/26 02:30:45;;;;;;;10.18;6.20;;;4.10;96.30;;;;;;5028989;28;20068;-43
2020/12/26 02:33:11;;;;;;;10.45;7.05;;;4.10;96.30;;;;;;5029262;28;20125;-42
2020/12/26 02:35:36;;;;;;;9.77;6.63;;;4.10;96.30;;;;;;5028745;28;20095;-43
2020/12/26 02:38:02;;;;;;;8.52;6.75;;;4.10;96.30;;;;;;5029055;28;20049;-43
2020/12/26 02:40:27;;;;;;;10.52;6.72;;;4.10;96.30;;;;;;5028400;28;20469;-44
2020/12/26 02:42:52;;;;;;;10.25;6.80;;;4.20;96.30;;;;;;5028409;28;20025;-43
2020/12/26 02:45:18;;;;;;;8.13;6.45;;;4.20;96.30;;;;;;5028636;28;20370;-42
2020/12/26 02:47:44;;;;;;;9.52;6.40;;;4.20;96.30;;;;;;5029024;28;20025;-42
2020/12/26 02:50:10;;;;;;;10.75;7.50;;;4.20;96.30;;;;;;5028502;28;20030;-41
2020/12/26 02:52:35;;;;;;;8.88;7.07;;;4.20;96.30;;;;;;5028516;28;20036;-43
2020/12/26 02:55:01;;;;;;;10.55;6.47;;;4.20;96.30;;;;;;5028242;28;20077;-43
2020/12/26 02:57:26;;;;;;;8.55;7.30;;;4.20;96.30;;;;;;5028388;28;20065;-43
2020/12/26 02:59:52;;;;;;;9.48;6.28;;;4.20;96.60;;;;;;5028577;28;20029;-43
2020/12/26 03:02:17;;;;;;;7.70;6.72;;;4.20;96.30;;;;;;5028505;28;20025;-42
2020/12/26 03:04:43;;;;;;;10.18;7.15;;;4.20;96.30;;;;;;5028480;28;20080;-42
2020/12/26 03:07:08;;;;;;;11.57;7.57;;;4.20;96.30;;;;;;5028634;28;20389;-44
2020/12/26 03:09:34;;;;;;;9.77;7.18;;;4.20;96.30;;;;;;5028377;28;20025;-43
2020/12/26 03:11:59;;;;;;;8.80;6.85;;;4.20;96.30;;;;;;5028042;28;20025;-42
2020/12/26 03:14:25;;;;;;;10.85;6.68;;;4.20;96.30;;;;;;5028179;28;20532;-42
2020/12/26 03:16:50;;;;;;;8.07;6.35;;;4.10;96.30;;;;;;5027881;28;20032;-43
2020/12/26 03:19:16;;;;;;;10.57;6.45;;;4.10;96.30;;;;;;5028030;28;20057;-43
2020/12/26 03:21:41;;;;;;;12.77;7.07;;;4.10;96.40;;;;;;5027869;28;20473;-43
2020/12/26 03:24:07;;;;;;;9.07;6.25;;;4.00;96.60;;;;;;5027733;28;20040;-42
2020/12/26 03:26:32;;;;;;;11.73;7.55;;;4.00;96.30;;;;;;5027971;28;20033;-42
2020/12/26 03:28:57;;;;;;;8.50;6.43;;;3.90;96.40;;;;;;5027908;28;20021;-43
2020/12/26 03:31:23;;;;;;;9.27;6.45;;;3.80;96.40;;;;;;5027563;28;20075;-42
2020/12/26 03:33:48;;;;;;;9.65;7.20;;;3.80;96.40;;;;;;5028116;28;20599;-42
2020/12/26 03:36:14;;;;;;;9.40;6.72;;;3.70;96.50;;;;;;5027657;28;20074;-43
2020/12/26 03:38:39;;;;;;;8.50;5.78;;;3.70;96.50;;;;;;5027134;28;20037;-43
2020/12/26 03:41:05;;;;;;;9.02;7.15;;;3.60;96.50;;;;;;5028007;28;20040;-43
2020/12/26 03:43:31;;;;;;;8.45;6.78;;;3.50;96.60;;;;;;5027683;28;20117;-43
2020/12/26 03:45:56;;;;;;;8.75;6.63;;;3.50;96.60;;;;;;5027096;28;20098;-43
2020/12/26 03:48:22;;;;;;;11.98;7.57;;;3.40;96.70;;;;;;5027453;28;20480;-43
2020/12/26 03:50:47;;;;;;;7.68;5.90;;;3.40;96.70;;;;;;5027266;28;20030;-43
2020/12/26 03:53:13;;;;;;;6.85;5.80;;;3.40;96.80;;;;;;5026654;28;20033;-43
2020/12/26 03:55:40;;;;;;;8.85;6.15;;;3.30;96.80;;;;;;5027374;28;20382;-43
2020/12/26 03:58:05;;;;;;;10.10;6.57;;;3.40;96.90;;;;;;5028190;28;20034;-43
2020/12/26 04:00:30;;;;;;;8.60;6.00;;;3.40;96.90;;;;;;5027223;28;20033;-44
2020/12/26 04:02:56;;;;;;;14.68;6.65;;;3.40;96.90;;;;;;5027249;28;20037;-42
2020/12/26 04:05:21;;;;;;;10.63;7.60;;;3.40;96.90;;;;;;5027538;28;20029;-43
2020/12/26 04:07:47;;;;;;;10.05;7.13;;;3.40;97.00;;;;;;5026805;28;20029;-43
2020/12/26 04:10:12;;;;;;;9.52;6.72;;;3.40;97.00;;;;;;5026978;28;20079;-41
2020/12/26 04:12:38;;;;;;;9.35;6.63;;;3.40;97.00;;;;;;5027451;28;20698;-43
2020/12/26 04:15:04;;;;;;;8.32;6.35;;;3.40;97.10;;;;;;5026657;28;20088;-43
2020/12/26 04:17:32;;;;;;;11.18;6.45;;;3.40;97.20;;;;;;5026919;28;20021;-42
2020/12/26 04:19:58;;;;;;;9.32;6.70;;;3.30;97.20;;;;;;5026301;28;20056;-43
2020/12/26 04:22:23;;;;;;;10.52;6.07;;;3.30;97.20;;;;;;5026853;28;20037;-44
2020/12/26 04:24:49;;;;;;;9.75;6.80;;;3.30;97.20;;;;;;5026831;28;20037;-43
2020/12/26 04:27:14;;;;;;;9.20;6.47;;;3.30;97.40;;;;;;5026591;28;20022;-44
2020/12/26 04:29:40;;;;;;;10.77;6.47;;;3.30;97.40;;;;;;5027133;28;20444;-43
2020/12/26 04:32:06;;;;;;;9.50;6.00;;;3.20;97.40;;;;;;5027311;28;20469;-43
2020/12/26 04:34:31;;;;;;;7.90;5.75;;;3.20;97.50;;;;;;5026547;28;20397;-43
2020/12/26 04:36:59;;;;;;;9.57;5.65;;;3.20;97.50;;;;;;5027031;28;20132;-43
2020/12/26 04:39:24;;;;;;;9.88;6.22;;;3.20;97.50;;;;;;5026660;28;20021;-43
2020/12/26 04:41:50;;;;;;;8.82;6.13;;;3.20;97.50;;;;;;5026318;28;20029;-43
2020/12/26 04:44:16;;;;;;;8.15;6.00;;;3.10;97.60;;;;;;5026564;28;20056;-43
2020/12/26 04:46:43;;;;;;;8.23;5.82;;;3.10;97.60;;;;;;5026593;28;20139;-44
2020/12/26 04:49:10;;;;;;;5.65;4.82;;;3.10;97.60;;;;;;5026681;28;20025;-42
2020/12/26 04:51:37;;;;;;;8.05;6.03;;;3.00;97.60;;;;;;5026456;28;20052;-43
2020/12/26 04:54:14;;;;;;;8.32;5.45;;;3.00;97.70;;;;;;5026228;28;20048;-43
2020/12/26 04:56:42;;;;;;;8.60;5.20;;;3.00;97.80;;;;;;5026520;28;20087;-44
2020/12/26 04:59:09;;;;;;;7.53;5.03;;;3.00;97.80;;;;;;5026902;28;20145;-43
2020/12/26 05:01:37;;;;;;;7.25;5.35;;;3.00;97.80;;;;;;5026496;28;20057;-43
2020/12/26 05:04:02;;;;;;;7.15;5.05;;;2.90;97.80;;;;;;5025982;28;20026;-43
2020/12/26 05:06:30;;;;;;;6.78;4.32;;;2.90;97.90;;;;;;5025932;28;20025;-43
2020/12/26 05:08:56;;;;;;;7.18;4.60;;;2.90;97.90;;;;;;5026249;28;20049;-43
2020/12/26 05:11:21;;;;;;;5.68;4.95;;;2.90;97.90;;;;;;5026267;28;20088;-43
2020/12/26 05:13:47;;;;;;;7.82;4.90;;;2.80;97.90;;;;;;5025957;28;20029;-43
2020/12/26 05:16:12;;;;;;;7.65;5.10;;;2.80;98.00;;;;;;5026183;28;20048;-43
2020/12/26 05:18:38;;;;;;;6.82;5.10;;;2.80;98.00;;;;;;5025963;28;20364;-43
2020/12/26 05:21:04;;;;;;;7.43;4.47;;;2.80;98.10;;;;;;5026022;28;20076;-43
2020/12/26 05:23:30;;;;;;;6.93;4.60;;;2.80;98.10;;;;;;5025842;28;20029;-44
2020/12/26 05:25:55;;;;;;;7.43;4.82;;;2.70;98.10;;;;;;5026190;28;20112;-43
2020/12/26 05:28:25;;;;;;;7.75;4.75;;;2.70;98.10;;;;;;5025884;28;20046;-43
2020/12/26 05:30:52;;;;;;;9.10;5.25;;;2.70;98.20;;;;;;5025433;28;20507;-43
2020/12/26 05:33:21;;;;;;;11.35;5.35;;;2.70;98.30;;;;;;5026052;28;20109;-42
2020/12/26 05:35:51;;;;;;;7.78;4.80;;;2.80;98.40;;;;;;5025686;28;20049;-43
2020/12/26 05:38:18;;;;;;;7.97;5.45;;;2.80;98.40;;;;;;5025643;28;20029;-42
2020/12/26 05:40:58;;;;;;;10.38;6.07;;;2.80;98.50;;;;;;5026778;28;20096;-43
2020/12/26 05:43:26;;;;;;;9.98;4.97;;;2.80;98.50;;;;;;5026184;28;20036;-43
2020/12/26 05:45:52;;;;;;;10.23;4.97;;;2.80;98.50;;;;;;5026133;28;20025;-44
2020/12/26 05:48:20;;;;;;;8.40;5.80;;;2.80;98.50;;;;;;5026549;28;20048;-42
2020/12/26 05:50:47;;;;;;;7.53;5.57;;;2.80;98.50;;;;;;5026760;28;20402;-42
2020/12/26 05:53:16;;;;;;;8.57;5.70;;;2.80;98.50;;;;;;5026489;28;20039;-43
2020/12/26 05:55:46;;;;;;;7.30;5.30;;;2.80;98.50;;;;;;5026863;28;20037;-42
2020/12/26 05:58:13;;;;;;;6.03;5.05;;;2.80;98.50;;;;;;5026227;28;20044;-43
2020/12/26 06:00:41;;;;;;;7.55;5.95;;;2.80;98.50;;;;;;5025203;28;20025;-43
2020/12/26 06:03:25;;;;;;;8.10;5.75;;;2.80;98.60;;;;;;5026353;28;20021;-42
2020/12/26 06:05:52;;;;;;;9.70;6.30;;;2.90;98.70;;;;;;5025596;28;20068;-43
2020/12/26 06:08:19;;;;;;;10.88;6.80;;;2.90;98.60;;;;;;5025669;28;20477;-43
2020/12/26 06:10:53;;;;;;;8.75;6.70;;;2.90;98.60;;;;;;5025835;28;20025;-43
2020/12/26 06:13:20;;;;;;;8.55;6.45;;;3.00;98.60;;;;;;5025116;28;20026;-43
2020/12/26 06:15:53;;;;;;;12.43;6.93;;;3.00;98.60;;;;;;5028302;28;20037;-44
2020/12/26 06:18:21;;;;;;;11.27;6.82;;;3.00;98.60;;;;;;5029460;28;20512;-43
2020/12/26 06:20:53;;;;;;;12.63;7.38;;;3.00;98.50;;;;;;5028796;28;20283;-43
2020/12/26 06:23:21;;;;;;;12.40;7.30;;;3.00;98.50;;;;;;5029131;28;20037;-42
2020/12/26 06:25:56;;;;;;;11.07;7.28;;;3.10;98.50;;;;;;5029378;28;20480;-43
2020/12/26 06:28:28;;;;;;;10.40;6.28;;;3.00;98.40;;;;;;5029091;28;20025;-44
2020/12/26 06:30:58;;;;;;;12.35;7.53;;;3.10;98.40;;;;;;5029100;28;20033;-43
2020/12/26 06:33:26;;;;;;;8.93;7.20;;;3.10;98.50;;;;;;5029009;28;20064;-43
2020/12/26 06:35:53;;;;;;;12.25;8.00;;;3.10;98.40;;;;;;5028579;28;20061;-43
2020/12/26 06:38:25;;;;;;;12.10;7.60;;;3.10;98.40;;;;;;5028973;28;20021;-43
2020/12/26 06:40:55;;;;;;;12.23;8.48;;;3.10;98.40;;;;;;5028677;28;20025;-43
2020/12/26 06:43:42;;;;;;;13.05;7.80;;;3.20;98.40;;;;;;5028776;28;20485;-42
2020/12/26 06:46:14;;;;;;;12.93;8.35;;;3.20;98.60;;;;;;5029462;28;20664;-43
2020/12/26 06:48:41;;;;;;;12.13;8.55;;;3.20;98.30;;;;;;5028275;28;20108;-43
2020/12/26 06:51:25;;;;;;;13.90;9.15;;;3.30;98.30;;;;;;5029193;28;20060;-42
2020/12/26 06:53:52;;;;;;;9.98;7.75;;;3.30;98.30;;;;;;5028927;28;20099;-43
2020/12/26 06:56:35;;;;;;;15.32;9.82;;;3.30;98.30;;;;;;5028533;28;20037;-43
2020/12/26 06:59:12;;;;;;;14.77;9.88;;;3.40;98.20;;;;;;5028339;28;20034;-42
2020/12/26 07:01:39;;;;;;;13.18;9.80;;;3.40;98.20;;;;;;5029245;28;20110;-43
2020/12/26 07:04:11;;;;;;;13.25;10.00;;;3.40;98.20;;;;;;5028502;28;20098;-43
2020/12/26 07:06:43;;;;;;;12.27;9.45;;;3.50;98.30;;;;;;5028472;28;20026;-43
2020/12/26 07:09:10;;;;;;;14.93;10.02;;;3.50;98.10;;;;;;5027992;28;20137;-42
2020/12/26 07:11:49;;;;;;;12.85;9.95;;;3.50;98.10;;;;;;5028232;28;20052;-44
2020/12/26 07:14:33;;;;;;;15.15;10.55;;;3.60;98.10;;;;;;5028310;28;20029;-43
2020/12/26 07:17:22;;;;;;;14.63;11.30;;;3.50;98.00;;;;;;5027767;28;20048;-43
2020/12/26 07:19:48;;;;;;;19.40;12.23;;;3.50;98.00;;;;;;5028119;28;20057;-43
2020/12/26 07:22:30;;;;;;;16.77;11.85;;;3.60;98.00;;;;;;5028639;28;20597;-42
2020/12/26 07:25:02;;;;;;;17.35;11.13;;;3.60;98.00;;;;;;5027846;28;20481;-43
2020/12/26 07:27:36;;;;;;;15.13;11.05;;;3.60;98.30;;;;;;5027018;28;20025;-43
2020/12/26 07:30:05;;;;;;;14.23;11.32;;;3.60;98.00;;;;;;5027747;28;20037;-42
2020/12/26 07:32:36;;;;;;;16.77;11.70;;;3.60;98.00;;;;;;5027974;28;20128;-43
2020/12/26 07:35:11;;;;;;;14.82;11.82;;;3.60;98.20;;;;;;5027947;28;20044;-43
2020/12/26 07:37:37;;;;;;;13.35;11.90;;;3.60;98.00;;;;;;5027935;28;20026;-43
2020/12/26 07:40:03;;;;;;;14.98;11.18;;;3.60;98.00;;;;;;5027900;28;20071;-43
2020/12/26 07:42:30;;;;;;;16.48;11.95;;;3.60;97.90;;;;;;5027952;28;20059;-43
2020/12/26 07:44:56;;;;;;;18.85;12.07;;;3.60;97.90;;;;;;5027506;28;20049;-43
2020/12/26 07:47:23;;;;;;;16.88;13.05;;;3.60;97.90;;;;;;5027694;28;20021;-42
2020/12/26 07:49:58;;;;;;;18.88;13.18;;;3.60;97.90;;;;;;5027835;28;20113;-43
2020/12/26 07:52:23;;;;;;;16.52;12.75;;;3.60;97.90;;;;;;5027557;28;20025;-42
2020/12/26 07:55:00;;;;;;;16.55;12.55;;;3.60;97.90;;;;;;5027552;28;20025;-42
2020/12/26 07:57:26;;;;;;;17.33;11.68;;;3.60;97.90;;;;;;5027201;28;20033;-43
2020/12/26 07:59:51;;;;;;;16.88;12.05;;;3.60;97.90;;;;;;5027216;28;20030;-43
2020/12/26 08:02:17;;;;;;;16.83;13.75;;;3.60;97.80;;;;;;5027472;28;20433;-43
2020/12/26 08:04:44;;;;;;;15.98;11.63;;;3.60;97.90;;;;;;5029246;28;20028;-48
2020/12/26 08:07:11;;;;;;;18.30;12.82;;;3.60;97.80;;;;;;5045955;28;20032;-44
2020/12/26 08:09:36;;;;;;;18.95;13.70;;;3.60;97.80;;;;;;5046165;28;20431;-43
2020/12/26 08:12:06;;;;;;;18.50;12.57;;;3.60;97.80;;;;;;5046548;28;20033;-43
2020/12/26 08:14:32;;;;;;;18.83;12.38;;;3.50;97.80;;;;;;5046578;28;20029;-44
2020/12/26 08:16:58;;;;;;;14.27;11.00;;;3.50;97.80;;;;;;5046608;28;20033;-43
2020/12/26 08:19:25;;;;;;;16.23;12.45;;;3.50;97.80;;;;;;5046138;28;20677;-43
2020/12/26 08:21:57;;;;;;;16.50;11.43;;;3.50;97.90;;;;;;5046331;28;20033;-42
2020/12/26 08:24:23;;;;;;;21.75;11.75;;;3.50;97.90;;;;;;5045853;28;20029;-43
2020/12/26 08:26:52;;;;;;;16.10;12.23;;;3.50;97.90;;;;;;5046375;28;20025;-44
2020/12/26 08:29:20;;;;;;;17.13;11.68;;;3.50;97.90;;;;;;5046394;28;20055;-44
2020/12/26 08:31:50;;;;;;;19.70;12.10;;;3.50;97.90;;;;;;5046012;28;20666;-42
2020/12/26 08:34:20;;;;;;;14.10;10.70;;;3.60;97.90;;;;;;5045964;28;20029;-44
2020/12/26 08:36:57;;;;;;;15.88;11.00;;;3.60;97.80;;;;;;5045915;28;20382;-42
2020/12/26 08:39:24;;;;;;;16.63;11.18;;;3.60;97.80;;;;;;5045543;28;20547;-43
2020/12/26 08:41:53;;;;;;;15.93;10.23;;;3.60;97.80;;;;;;5045717;28;20232;-42
2020/12/26 08:44:19;;;;;;;14.05;9.45;;;3.60;97.70;;;;;;5046104;28;20021;-42
2020/12/26 08:46:46;;;;;;;17.67;9.80;;;3.60;98.00;;;;;;5046154;28;20392;-43
2020/12/26 08:49:13;;;;;;;14.20;9.45;;;3.60;97.70;;;;;;5045785;28;20496;-43
2020/12/26 08:51:42;;;;;;;14.60;9.88;;;3.60;97.70;;;;;;5046259;28;20035;-42
2020/12/26 08:54:19;;;;;;;13.93;9.00;;;3.60;97.70;;;;;;5046016;28;20037;-43
2020/12/26 08:56:45;;;;;;;12.65;9.38;;;3.60;97.70;;;;;;5046155;28;20762;-43
2020/12/26 08:59:11;;;;;;;14.82;9.57;;;3.60;97.70;;;;;;5046563;28;20032;-43
2020/12/26 09:01:37;;;;;;;17.70;9.90;;;3.60;97.80;;;;;;5044978;28;20039;-43
2020/12/26 09:04:03;;;;;;;11.98;8.98;;;3.60;97.70;;;;;;5045397;28;20124;-45
2020/12/26 09:06:34;;;;;;;13.77;8.80;;;3.60;97.70;;;;;;5053279;28;20040;-43
2020/12/26 09:09:16;;;;;;;15.93;8.65;;;3.60;97.70;;;;;;5045260;28;20029;-43
2020/12/26 09:11:42;;;;;;;10.23;8.25;;;3.60;97.70;;;;;;5045721;28;20452;-43
2020/12/26 09:14:18;;;;;;;14.20;8.68;;;3.70;97.70;;;;;;5045274;28;20075;-43
2020/12/26 09:16:44;;;;;;;12.73;8.32;;;3.70;97.60;;;;;;5045069;28;20040;-43
2020/12/26 09:19:09;;;;;;;13.50;8.18;;;3.70;97.60;;;;;;5045320;28;20388;-43
2020/12/26 09:21:35;;;;;;;15.68;9.00;;;3.70;97.60;;;;;;5045740;28;20037;-42
2020/12/26 09:24:00;;;;;;;12.23;8.30;;;3.70;97.50;;;;;;5044860;28;20178;-43
2020/12/26 09:26:27;;;;;;;11.80;8.25;;;3.70;97.50;;;;;;5045124;28;20036;-43
2020/12/26 09:29:01;;;;;;;13.07;8.40;;;3.70;97.60;;;;;;5045216;28;20025;-43
2020/12/26 09:31:37;;;;;;;9.77;7.53;;;3.80;97.70;;;;;;5044692;28;20072;-43
2020/12/26 09:34:35;;;;;;;17.33;8.40;;;3.90;97.60;;;;;;5053983;28;20032;-43
2020/12/26 09:37:07;;;;;;;14.93;8.23;;;4.00;97.50;;;;;;5053290;28;20045;-43
2020/12/26 09:39:33;;;;;;;13.70;7.45;;;4.10;97.30;;;;;;5066042;28;20037;-44
2020/12/26 09:41:59;;;;;;;9.23;7.30;;;4.20;97.10;;;;;;5065864;28;20021;-43
2020/12/26 09:44:25;;;;;;;11.07;7.70;;;4.20;97.00;;;;;;5061906;28;20032;-43
2020/12/26 09:47:01;;;;;;;11.13;6.90;;;4.30;96.90;;;;;;5066904;28;20107;-43
2020/12/26 09:49:27;;;;;;;9.98;7.20;;;4.30;96.90;;;;;;5064103;28;20063;-42
2020/12/26 09:51:53;;;;;;;12.85;7.10;;;4.40;96.70;;;;;;5049686;28;20034;-43
2020/12/26 09:54:18;;;;;;;10.25;6.53;;;4.40;96.60;;;;;;5053212;28;20025;-43
2020/12/26 09:56:44;;;;;;;12.82;7.18;;;4.30;96.70;;;;;;5050411;28;20231;-43
2020/12/26 09:59:09;;;;;;;9.75;6.72;;;4.30;96.60;;;;;;5058903;28;20045;-42
2020/12/26 10:01:35;;;;;;;11.25;6.50;;;4.30;96.70;;;;;;5070411;28;20047;-44
2020/12/26 10:04:00;;;;;;;8.88;6.40;;;4.30;96.70;;;;;;5070126;28;20016;-43
2020/12/26 10:06:26;;;;;;;11.65;6.68;;;4.30;96.60;;;;;;5069683;28;20020;-43
2020/12/26 10:08:52;;;;;;;10.32;6.22;;;4.30;96.50;;;;;;5070225;28;20024;-43
2020/12/26 10:11:19;;;;;;;11.75;6.13;;;4.40;96.50;;;;;;5069944;28;20039;-44
2020/12/26 10:13:46;;;;;;;10.45;5.70;;;4.40;96.40;;;;;;5069797;28;20048;-43
2020/12/26 10:16:14;;;;;;;6.97;5.22;;;4.40;96.40;;;;;;5052496;28;20071;-43
2020/12/26 10:18:40;;;;;;;8.82;5.70;;;4.50;96.40;;;;;;5069365;28;20028;-42
2020/12/26 10:21:05;;;;;;;10.82;6.20;;;4.50;96.30;;;;;;5070185;28;20086;-42
2020/12/26 10:23:31;;;;;;;10.93;6.30;;;4.50;96.30;;;;;;5070126;28;20396;-42
2020/12/26 10:26:04;;;;;;;9.85;5.70;;;4.60;96.40;;;;;;5069582;28;20082;-43
2020/12/26 10:28:30;;;;;;;8.68;5.05;;;4.70;96.30;;;;;;5069808;28;20792;-43
2020/12/26 10:30:56;;;;;;;6.70;5.18;;;4.70;96.30;;;;;;5069786;28;20063;-42
2020/12/26 10:33:21;;;;;;;9.07;5.13;;;4.80;96.00;;;;;;5069183;28;20073;-43
2020/12/26 10:35:47;;;;;;;9.43;5.57;;;4.80;95.90;;;;;;5069480;28;20133;-43
2020/12/26 10:38:12;;;;;;;11.02;6.50;;;4.80;95.60;;;;;;5070474;28;20047;-43
2020/12/26 10:40:38;;;;;;;6.18;4.90;;;4.80;95.60;;;;;;5069614;28;20791;-43
2020/12/26 10:43:03;;;;;;;7.85;4.93;;;4.90;95.60;;;;;;5046740;28;20018;-43
2020/12/26 10:45:29;;;;;;;8.30;5.05;;;4.90;95.70;;;;;;5029963;28;20018;-43
2020/12/26 10:47:54;;;;;;;7.57;5.00;;;4.90;95.50;;;;;;5029140;28;20026;-43
2020/12/26 10:50:20;;;;;;;7.78;4.55;;;5.00;95.70;;;;;;5029505;28;20029;-43
2020/12/26 10:52:45;;;;;;;6.82;4.80;;;5.00;95.30;;;;;;5042450;28;20624;-43
2020/12/26 10:55:14;;;;;;;6.70;4.45;;;5.10;95.20;;;;;;5055104;28;20511;-42
2020/12/26 10:57:40;;;;;;;11.85;5.03;;;5.10;95.20;;;;;;5058653;28;20020;-42
2020/12/26 11:00:06;;;;;;;6.30;4.30;;;5.20;94.80;;;;;;5060032;28;20506;-43
2020/12/26 11:02:32;;;;;;;7.28;4.18;;;5.20;94.80;;;;;;5057407;28;20017;-43
2020/12/26 11:04:58;;;;;;;6.00;4.32;;;5.20;94.80;;;;;;5058572;28;20103;-43
2020/12/26 11:07:23;;;;;;;6.63;4.13;;;5.30;94.60;;;;;;5059582;28;20429;-44
2020/12/26 11:09:49;;;;;;;7.85;3.55;;;5.30;94.60;;;;;;5057591;28;20013;-43
2020/12/26 11:12:14;;;;;;;6.22;3.97;;;5.30;94.80;;;;;;5059023;28;20032;-44
2020/12/26 11:14:39;;;;;;;6.07;4.03;;;5.40;94.70;;;;;;5058778;28;20111;-43
2020/12/26 11:17:05;;;;;;;5.95;4.32;;;5.40;94.50;;;;;;5063051;28;20032;-43
2020/12/26 11:19:30;;;;;;;7.15;4.00;;;5.40;94.60;;;;;;5068477;28;20404;-43
2020/12/26 11:21:56;;;;;;;6.15;4.13;;;5.40;94.50;;;;;;5068819;28;20032;-43
2020/12/26 11:24:22;;;;;;;4.93;3.70;;;5.40;94.10;;;;;;5068968;28;20111;-43
2020/12/26 11:26:48;;;;;;;6.05;3.80;;;5.50;94.00;;;;;;5068655;28;20066;-43
2020/12/26 11:29:14;;;;;;;7.28;3.92;;;5.40;93.90;;;;;;5068283;28;20025;-43
2020/12/26 11:31:40;;;;;;;7.13;3.85;;;5.40;94.00;;;;;;5065808;28;20043;-43
2020/12/26 11:34:06;;;;;;;6.38;3.70;;;5.40;94.20;;;;;;5067990;28;20024;-43
2020/12/26 11:36:31;;;;;;;4.80;3.50;;;5.40;94.00;;;;;;5068271;28;20039;-43
2020/12/26 11:38:58;;;;;;;4.53;3.22;;;5.40;94.10;;;;;;5069012;28;20028;-43
2020/12/26 11:41:26;;;;;;;7.72;3.47;;;5.40;94.20;;;;;;5068295;28;20028;-42
2020/12/26 11:43:56;;;;;;;5.22;3.30;;;5.40;94.20;;;;;;5068466;28;20108;-43
2020/12/26 11:46:22;;;;;;;6.50;3.97;;;5.50;94.00;;;;;;5068499;28;20040;-42
2020/12/26 11:48:47;;;;;;;5.15;3.63;;;5.50;94.00;;;;;;5068208;28;20024;-44
2020/12/26 11:51:13;;;;;;;6.03;3.15;;;5.50;94.10;;;;;;5067990;28;20422;-43
2020/12/26 11:53:39;;;;;;;7.13;3.60;;;5.50;94.00;;;;;;5068435;28;20079;-43
2020/12/26 11:56:09;;;;;;;5.38;3.22;;;5.50;94.10;;;;;;5068149;28;20064;-43
2020/12/26 11:58:35;;;;;;;6.90;3.72;;;5.50;93.90;;;;;;5064688;28;20032;-42
2020/12/26 12:01:02;;;;;;;6.53;3.40;;;5.60;93.80;;;;;;5067901;28;20772;-42
2020/12/26 12:03:27;;;;;;;5.28;3.00;;;5.60;93.80;;;;;;5067853;28;20029;-43
2020/12/26 12:05:53;;;;;;;6.65;3.13;;;5.60;93.70;;;;;;5050662;28;20032;-42
2020/12/26 12:08:19;;;;;;;5.30;3.00;;;5.60;93.70;;;;;;5047650;28;20017;-42
2020/12/26 12:10:44;;;;;;;6.07;3.10;;;5.60;93.70;;;;;;5047889;28;20697;-42
2020/12/26 12:13:10;;;;;;;6.45;3.08;;;5.60;93.60;;;;;;5034864;28;20060;-43
2020/12/26 12:15:35;;;;;;;7.65;3.38;;;5.60;93.60;;;;;;5027329;28;20535;-43
2020/12/26 12:18:01;;;;;;;6.40;2.88;;;5.60;93.60;;;;;;5028277;28;20557;-44
2020/12/26 12:20:28;;;;;;;9.35;3.50;;;5.60;93.60;;;;;;5026993;28;20128;-43
2020/12/26 12:22:54;;;;;;;8.57;3.40;;;5.60;93.30;;;;;;5040491;28;20120;-43
2020/12/26 12:25:20;;;;;;;7.78;4.20;;;5.60;93.40;;;;;;5047158;28;20104;-43
2020/12/26 12:27:46;;;;;;;5.55;3.40;;;5.60;93.50;;;;;;5047241;28;20021;-44
2020/12/26 12:30:11;;;;;;;4.78;3.00;;;5.70;93.40;;;;;;5047931;28;20032;-44
2020/12/26 12:32:37;;;;;;;5.10;3.10;;;5.70;93.50;;;;;;5045614;28;20886;-44
2020/12/26 12:35:02;;;;;;;6.90;3.58;;;5.80;93.40;;;;;;5047487;28;20029;-43
2020/12/26 12:37:28;;;;;;;7.07;3.85;;;5.80;93.20;;;;;;5047471;28;20477;-43
2020/12/26 12:39:53;;;;;;;8.98;3.35;;;5.90;93.20;;;;;;5039607;28;20052;-43
2020/12/26 12:42:19;;;;;;;8.48;3.60;;;5.90;93.10;;;;;;5036345;28;20385;-43
2020/12/26 12:44:44;;;;;;;8.07;3.30;;;5.90;92.80;;;;;;5042658;28;20029;-43
2020/12/26 12:47:10;;;;;;;7.47;3.90;;;5.90;92.40;;;;;;5061528;28;20048;-43
2020/12/26 12:49:35;;;;;;;7.75;4.45;;;6.00;92.70;;;;;;5041497;28;20051;-42
2020/12/26 12:52:05;;;;;;;6.32;3.60;;;5.90;92.20;;;;;;5047584;28;20032;-43